< < Back
Terminal Aerodrome Forecast


Current Version              Previous Versions:   1  2  3  4  5  6  7  8  9  

Terminal Aerodrome Forecast

516
FTUS42 KFFC 270153 AAA
TAFATL
TAF AMD
KATL 270153Z 2702/2806 31010KT P6SM SCT025 BKN100
     FM270300 31009KT P6SM -RA SCT025 BKN070
     FM270700 30008KT P6SM OVC025
     FM271600 31012KT P6SM BKN040
     FM271900 32015G25KT P6SM SCT250=



Latest METAR

355
SAUS70 KWBC 270300
MTRATL
METAR KATL 270252Z 30007KT 10SM SCT075 BKN100 BKN150 02/M02 A2992 RMK
AO2 SLP136 T00221022 58001


USA.gov is the U.S. government's official web portal to all federal, state and local government web resources and services.